createdAt,value
2023-05-15T00:00:34.313Z,7.80
2023-05-15T00:03:00.933Z,13.33
2023-05-15T00:05:27.620Z,7.73
2023-05-15T00:07:54.221Z,7.57
2023-05-15T00:10:20.910Z,11.77
2023-05-15T00:12:47.495Z,10.77
2023-05-15T00:15:14.189Z,8.87
2023-05-15T00:17:40.938Z,10.13
2023-05-15T00:20:09.720Z,8.80
2023-05-15T00:22:36.371Z,10.43
2023-05-15T00:25:03.394Z,10.63
2023-05-15T00:27:30.157Z,10.27
2023-05-15T00:29:56.780Z,11.77
2023-05-15T00:32:23.403Z,10.93
2023-05-15T00:34:51.757Z,9.50
2023-05-15T00:37:18.372Z,9.97
2023-05-15T00:39:45.085Z,9.97
2023-05-15T00:42:12.445Z,9.10
2023-05-15T00:44:41.306Z,10.67
2023-05-15T00:47:09.986Z,6.57
2023-05-15T00:49:37.822Z,8.30
2023-05-15T00:52:08.105Z,8.50
2023-05-15T00:54:35.153Z,6.70
2023-05-15T00:57:06.191Z,7.53
2023-05-15T00:59:33.343Z,10.33
2023-05-15T01:02:00.532Z,7.83
2023-05-15T01:04:27.221Z,8.20
2023-05-15T01:06:53.944Z,9.57
2023-05-15T01:09:23.491Z,8.77
2023-05-15T01:11:53.293Z,8.23
2023-05-15T01:14:19.976Z,8.00
2023-05-15T01:16:46.664Z,9.77
2023-05-15T01:19:13.446Z,8.70
2023-05-15T01:22:11.361Z,8.20
2023-05-15T01:24:59.812Z,13.97
2023-05-15T01:28:03.286Z,7.93
2023-05-15T01:30:34.554Z,8.40
2023-05-15T01:33:22.194Z,8.77
2023-05-15T01:36:12.782Z,9.23
2023-05-15T01:38:46.177Z,11.53
2023-05-15T01:41:35.095Z,8.13
2023-05-15T01:44:14.899Z,7.77
2023-05-15T01:46:45.738Z,8.67
2023-05-15T01:49:15.868Z,10.67
2023-05-15T01:51:44.480Z,9.20
2023-05-15T01:54:13.282Z,9.10
2023-05-15T01:56:41.724Z,10.80
2023-05-15T01:59:09.324Z,8.20
2023-05-15T02:01:37.413Z,11.47
2023-05-15T02:04:04.575Z,7.87
2023-05-15T02:06:32.147Z,9.17
2023-05-15T02:09:02.297Z,9.27
2023-05-15T02:11:30.665Z,13.87
2023-05-15T02:13:58.001Z,10.70
2023-05-15T02:16:24.750Z,7.33
2023-05-15T02:18:52.513Z,7.27
2023-05-15T02:21:19.919Z,8.07
2023-05-15T02:23:46.621Z,7.03
2023-05-15T02:26:31.899Z,8.27
2023-05-15T02:29:31.434Z,7.53
2023-05-15T02:32:33.442Z,8.50
2023-05-15T02:35:18.950Z,8.27
2023-05-15T02:37:53.758Z,9.30
2023-05-15T02:40:23.237Z,7.50
2023-05-15T02:42:52.919Z,8.70
2023-05-15T02:45:22.017Z,8.43
2023-05-15T02:47:51.467Z,9.30
2023-05-15T02:50:19.355Z,8.27
2023-05-15T02:52:46.087Z,9.53
2023-05-15T02:55:12.689Z,8.60
2023-05-15T02:57:39.314Z,10.87
2023-05-15T03:00:09.000Z,11.73
2023-05-15T03:02:36.113Z,11.57
2023-05-15T03:05:03.388Z,11.30
2023-05-15T03:07:30.022Z,8.57
2023-05-15T03:09:56.670Z,8.43
2023-05-15T03:12:23.303Z,9.23
2023-05-15T03:14:49.875Z,10.53
2023-05-15T03:17:16.853Z,7.93
2023-05-15T03:19:43.527Z,9.70
2023-05-15T03:22:10.317Z,9.83
2023-05-15T03:24:36.912Z,9.10
2023-05-15T03:27:04.745Z,10.83
2023-05-15T03:29:31.364Z,14.00
2023-05-15T03:31:58.054Z,10.00
2023-05-15T03:34:24.764Z,11.17
2023-05-15T03:36:51.410Z,9.83
2023-05-15T03:39:18.008Z,9.60
2023-05-15T03:41:44.613Z,8.20
2023-05-15T03:44:11.246Z,12.27
2023-05-15T03:46:39.719Z,12.57
2023-05-15T03:49:06.396Z,9.97
2023-05-15T03:51:34.669Z,10.03
2023-05-15T03:54:01.322Z,11.47
2023-05-15T03:56:28.043Z,9.30
2023-05-15T03:58:54.753Z,9.67
2023-05-15T04:01:21.331Z,11.57
2023-05-15T04:03:47.976Z,8.67
2023-05-15T04:06:14.621Z,9.33
2023-05-15T04:08:41.602Z,9.10
2023-05-15T04:11:09.662Z,11.37
2023-05-15T04:13:36.231Z,10.07
2023-05-15T04:16:04.270Z,9.13
2023-05-15T04:18:31.064Z,10.60
2023-05-15T04:20:57.657Z,12.07
2023-05-15T04:23:24.257Z,10.10
2023-05-15T04:25:53.671Z,11.07
2023-05-15T04:28:23.030Z,9.80
2023-05-15T04:30:49.690Z,10.30
2023-05-15T04:33:16.394Z,13.50
2023-05-15T04:35:43.310Z,9.80
2023-05-15T04:38:10.046Z,10.20
2023-05-15T04:40:36.839Z,10.83
2023-05-15T04:43:04.258Z,10.47
2023-05-15T04:45:30.942Z,15.17
2023-05-15T04:47:57.630Z,11.40
2023-05-15T04:50:24.494Z,14.20
2023-05-15T04:52:51.833Z,13.43
2023-05-15T04:55:18.508Z,15.70
2023-05-15T04:57:47.126Z,11.93
2023-05-15T05:00:14.710Z,10.53
2023-05-15T05:02:43.385Z,11.80
2023-05-15T05:05:10.092Z,10.57
2023-05-15T05:07:36.683Z,12.00
2023-05-15T05:10:04.265Z,10.93
2023-05-15T05:12:31.008Z,11.57
2023-05-15T05:14:57.676Z,10.40
2023-05-15T05:17:24.392Z,11.13
2023-05-15T05:19:51.000Z,10.40
2023-05-15T05:22:17.642Z,9.87
2023-05-15T05:24:44.237Z,10.17
2023-05-15T05:27:11.046Z,9.40
2023-05-15T05:29:38.131Z,10.37
2023-05-15T05:32:05.294Z,11.37
2023-05-15T05:34:31.932Z,13.97
2023-05-15T05:36:58.669Z,16.57
2023-05-15T05:39:25.335Z,13.17
2023-05-15T05:41:51.986Z,16.10
2023-05-15T05:44:18.641Z,10.83
2023-05-15T05:46:45.427Z,14.50
2023-05-15T05:49:12.233Z,12.03
2023-05-15T05:51:39.868Z,9.80
2023-05-15T05:54:06.505Z,10.13
2023-05-15T05:56:33.237Z,8.77
2023-05-15T05:59:01.773Z,14.37
2023-05-15T06:01:28.706Z,11.03
2023-05-15T06:03:55.832Z,15.57
2023-05-15T06:06:22.614Z,9.93
2023-05-15T06:08:49.270Z,11.57
2023-05-15T06:11:16.062Z,13.47
2023-05-15T06:13:43.469Z,14.73
2023-05-15T06:16:10.077Z,17.33
2023-05-15T06:18:36.792Z,11.50
2023-05-15T06:21:03.544Z,17.23
2023-05-15T06:23:30.472Z,15.63
2023-05-15T06:25:57.182Z,13.70
2023-05-15T06:28:23.775Z,13.30
2023-05-15T06:30:50.448Z,8.20
2023-05-15T06:33:17.230Z,15.30
2023-05-15T06:35:43.945Z,10.83
2023-05-15T06:38:10.752Z,9.77
2023-05-15T06:40:37.426Z,12.57
2023-05-15T06:43:04.093Z,7.67
2023-05-15T06:45:31.352Z,6.27
2023-05-15T06:48:00.727Z,10.17
2023-05-15T06:50:28.160Z,10.47
2023-05-15T06:52:54.757Z,8.43
2023-05-15T06:55:21.459Z,5.63
2023-05-15T06:57:48.068Z,10.63
2023-05-15T07:00:15.218Z,15.00
2023-05-15T07:02:43.039Z,7.47
2023-05-15T07:05:11.206Z,5.20
2023-05-15T07:07:37.889Z,6.80
2023-05-15T07:10:05.161Z,5.27
2023-05-15T07:12:32.981Z,5.47
2023-05-15T07:14:59.726Z,11.03
2023-05-15T07:17:26.635Z,5.03
2023-05-15T07:19:53.396Z,6.00
2023-05-15T07:22:20.105Z,7.37
2023-05-15T07:24:47.579Z,7.73
2023-05-15T07:27:14.432Z,5.80
2023-05-15T07:29:41.066Z,4.50
2023-05-15T07:32:07.995Z,5.33
2023-05-15T07:34:34.573Z,5.70
2023-05-15T07:37:01.192Z,8.03
2023-05-15T07:39:27.845Z,6.53
2023-05-15T07:41:54.515Z,4.83
2023-05-15T07:44:21.128Z,3.60
2023-05-15T07:46:47.874Z,4.87
2023-05-15T07:49:14.563Z,3.17
2023-05-15T07:51:41.321Z,5.87
2023-05-15T07:54:08.090Z,4.00
2023-05-15T07:56:34.805Z,4.27
2023-05-15T07:59:01.563Z,2.90
2023-05-15T08:01:29.552Z,3.47
2023-05-15T08:03:58.463Z,3.30
2023-05-15T08:06:25.296Z,3.20
2023-05-15T08:08:51.908Z,4.57
2023-05-15T08:11:18.838Z,2.77
2023-05-15T08:13:45.530Z,4.70
2023-05-15T08:16:12.179Z,6.57
2023-05-15T08:18:38.842Z,3.80
2023-05-15T08:21:05.588Z,3.20
2023-05-15T08:23:32.274Z,3.03
2023-05-15T08:25:59.282Z,2.80
2023-05-15T08:28:25.892Z,2.90
2023-05-15T08:30:52.549Z,2.80
2023-05-15T08:33:19.199Z,3.10
2023-05-15T08:35:45.971Z,3.10
2023-05-15T08:38:12.731Z,3.43
2023-05-15T08:40:41.710Z,3.13
2023-05-15T08:43:17.749Z,4.23
2023-05-15T08:45:44.641Z,3.07
2023-05-15T08:48:16.017Z,3.37
2023-05-15T08:50:44.221Z,3.83
2023-05-15T08:53:12.658Z,3.30
2023-05-15T08:55:40.036Z,3.57
2023-05-15T08:58:09.334Z,3.20
2023-05-15T09:00:36.289Z,2.90
2023-05-15T09:03:03.233Z,3.07
2023-05-15T09:05:30.364Z,5.70
2023-05-15T09:07:58.781Z,3.57
2023-05-15T09:10:25.452Z,3.33
2023-05-15T09:12:53.304Z,3.17
2023-05-15T09:15:23.090Z,3.13
2023-05-15T09:17:51.127Z,2.97
2023-05-15T09:20:27.087Z,3.33
2023-05-15T09:22:54.361Z,3.40
2023-05-15T09:25:40.666Z,2.93
2023-05-15T09:28:10.571Z,3.30
2023-05-15T09:30:42.520Z,3.20
2023-05-15T09:33:09.769Z,2.70
2023-05-15T09:35:38.429Z,6.80
2023-05-15T09:38:09.591Z,3.30
2023-05-15T09:40:36.374Z,3.10
2023-05-15T09:43:02.988Z,3.30
2023-05-15T09:45:30.577Z,2.87
2023-05-15T09:48:00.354Z,3.30
2023-05-15T09:50:34.582Z,2.80
2023-05-15T09:53:01.270Z,3.93
2023-05-15T09:55:28.307Z,2.67
2023-05-15T09:58:08.222Z,3.00
2023-05-15T10:00:35.827Z,6.27
2023-05-15T10:03:04.721Z,7.57
2023-05-15T10:05:41.936Z,2.97
2023-05-15T10:08:09.918Z,3.70
2023-05-15T10:10:36.563Z,2.70
2023-05-15T10:13:05.775Z,2.97
2023-05-15T10:15:33.015Z,2.90
2023-05-15T10:18:00.820Z,2.80
2023-05-15T10:20:27.591Z,2.90
2023-05-15T10:22:56.369Z,2.57
2023-05-15T10:25:55.719Z,3.07
2023-05-15T10:28:23.467Z,2.93
2023-05-15T10:30:50.630Z,2.60
2023-05-15T10:33:19.341Z,2.63
2023-05-15T10:35:46.878Z,2.87
2023-05-15T10:38:14.138Z,2.70
2023-05-15T10:40:41.478Z,3.03
2023-05-15T10:43:11.441Z,6.67
2023-05-15T10:45:38.891Z,2.80
2023-05-15T10:48:07.772Z,2.80
2023-05-15T10:50:37.507Z,2.57
2023-05-15T10:53:04.311Z,3.23
2023-05-15T10:55:31.216Z,3.13
2023-05-15T10:57:57.894Z,7.23
2023-05-15T11:00:33.614Z,2.80
2023-05-15T11:03:00.995Z,2.83
2023-05-15T11:05:27.968Z,2.77
2023-05-15T11:08:18.251Z,2.80
2023-05-15T11:10:45.073Z,2.83
2023-05-15T11:13:11.981Z,2.80
2023-05-15T11:15:46.539Z,2.83
2023-05-15T11:18:13.848Z,4.00
2023-05-15T11:20:42.475Z,2.80
2023-05-15T11:23:09.400Z,3.00
2023-05-15T11:25:37.106Z,2.47
2023-05-15T11:28:04.996Z,2.50
2023-05-15T11:30:37.995Z,2.50
2023-05-15T11:33:11.175Z,4.80
2023-05-15T11:35:48.439Z,2.80
2023-05-15T11:38:24.848Z,2.40
2023-05-15T11:40:55.034Z,2.70
2023-05-15T11:43:26.395Z,6.60
2023-05-15T11:46:03.892Z,2.57
2023-05-15T11:48:35.544Z,2.53
2023-05-15T11:51:02.895Z,4.93
2023-05-15T11:53:30.777Z,2.47
2023-05-15T11:55:57.736Z,2.60
2023-05-15T11:58:26.237Z,2.10
2023-05-15T12:00:53.833Z,2.50
2023-05-15T12:03:25.764Z,2.37
2023-05-15T12:05:59.802Z,2.30
2023-05-15T12:08:39.886Z,2.77
2023-05-15T12:11:06.521Z,2.90
2023-05-15T12:13:33.834Z,2.27
2023-05-15T12:16:03.406Z,2.60
2023-05-15T12:18:33.885Z,2.43
2023-05-15T12:21:00.684Z,2.27
2023-05-15T12:23:28.521Z,11.07
2023-05-15T12:25:59.693Z,2.30
2023-05-15T12:28:27.227Z,2.20
2023-05-15T12:30:54.483Z,2.17
2023-05-15T12:33:21.557Z,6.27
2023-05-15T12:35:56.330Z,2.50
2023-05-15T12:38:26.664Z,4.13
2023-05-15T12:40:53.737Z,2.43
2023-05-15T12:43:23.408Z,8.63
2023-05-15T12:45:55.748Z,2.60
2023-05-15T12:48:22.558Z,2.60
2023-05-15T12:50:50.089Z,2.63
2023-05-15T12:53:16.834Z,2.50
2023-05-15T12:55:47.352Z,3.57
2023-05-15T12:58:15.705Z,2.40
2023-05-15T13:00:43.415Z,2.40
2023-05-15T13:03:11.342Z,4.77
2023-05-15T13:05:39.306Z,2.83
2023-05-15T13:08:09.301Z,2.17
2023-05-15T13:10:37.979Z,2.37
2023-05-15T13:13:04.822Z,1.90
2023-05-15T13:15:37.590Z,2.40
2023-05-15T13:18:06.228Z,2.27
2023-05-15T13:20:34.995Z,2.43
2023-05-15T13:23:02.344Z,3.67
2023-05-15T13:25:32.024Z,2.50
2023-05-15T13:28:00.184Z,2.67
2023-05-15T13:30:28.404Z,2.30
2023-05-15T13:32:55.905Z,13.87
2023-05-15T13:35:23.014Z,2.47
2023-05-15T13:37:49.926Z,9.30
2023-05-15T13:40:16.566Z,2.93
2023-05-15T13:42:44.482Z,3.37
2023-05-15T13:45:15.805Z,3.60
2023-05-15T13:47:43.755Z,3.10
2023-05-15T13:50:15.697Z,8.20
2023-05-15T13:52:44.381Z,2.80
2023-05-15T13:55:11.436Z,2.10
2023-05-15T13:57:39.335Z,2.57
2023-05-15T14:00:12.745Z,2.60
2023-05-15T14:02:44.125Z,2.10
2023-05-15T14:05:13.007Z,2.60
2023-05-15T14:07:41.078Z,2.23
2023-05-15T14:10:08.848Z,2.80
2023-05-15T14:12:36.415Z,5.27
2023-05-15T14:15:03.460Z,3.63
2023-05-15T14:17:30.254Z,12.97
2023-05-15T14:19:56.995Z,4.47
2023-05-15T14:22:24.839Z,5.50
2023-05-15T14:24:52.864Z,5.03
2023-05-15T14:27:19.580Z,2.53
2023-05-15T14:29:47.231Z,2.30
2023-05-15T14:32:13.979Z,2.80
2023-05-15T14:34:40.741Z,12.97
2023-05-15T14:37:07.400Z,10.10
2023-05-15T14:39:34.050Z,13.57
2023-05-15T14:42:00.652Z,12.87
2023-05-15T14:44:27.251Z,7.60
2023-05-15T14:47:08.213Z,2.60
2023-05-15T14:49:35.741Z,3.00
2023-05-15T14:52:03.292Z,2.83
2023-05-15T14:54:29.940Z,2.43
2023-05-15T14:56:57.614Z,2.47
2023-05-15T14:59:25.558Z,2.60
2023-05-15T15:01:52.210Z,7.23
2023-05-15T15:04:18.966Z,9.77
2023-05-15T15:06:47.562Z,8.00
2023-05-15T15:09:14.304Z,11.10
2023-05-15T15:11:40.959Z,3.20
2023-05-15T15:14:07.577Z,2.17
2023-05-15T15:16:34.337Z,9.00
2023-05-15T15:19:01.159Z,2.70
2023-05-15T15:21:27.841Z,11.47
2023-05-15T15:23:55.130Z,7.87
2023-05-15T15:26:21.804Z,6.10
2023-05-15T15:28:48.566Z,4.50
2023-05-15T15:31:15.645Z,6.70
2023-05-15T15:33:42.376Z,9.83
2023-05-15T15:36:09.071Z,4.77
2023-05-15T15:38:38.573Z,5.00
2023-05-15T15:41:06.295Z,2.50
2023-05-15T15:43:32.874Z,9.30
2023-05-15T15:45:59.559Z,9.17
2023-05-15T15:48:26.299Z,11.57
2023-05-15T15:50:53.245Z,10.63
2023-05-15T15:53:20.008Z,10.77
2023-05-15T15:55:47.294Z,10.93
2023-05-15T15:58:14.650Z,12.80
2023-05-15T16:00:41.340Z,12.00
2023-05-15T16:03:08.210Z,9.47
2023-05-15T16:05:34.984Z,4.13
2023-05-15T16:08:01.649Z,2.87
2023-05-15T16:10:28.498Z,3.23
2023-05-15T16:12:55.362Z,7.00
2023-05-15T16:15:23.991Z,4.40
2023-05-15T16:17:53.264Z,5.67
2023-05-15T16:20:20.765Z,3.03
2023-05-15T16:22:47.383Z,11.30
2023-05-15T16:25:14.061Z,8.67
2023-05-15T16:27:40.710Z,10.37
2023-05-15T16:30:09.100Z,3.77
2023-05-15T16:32:36.172Z,7.67
2023-05-15T16:35:03.321Z,3.00
2023-05-15T16:37:29.984Z,3.30
2023-05-15T16:39:56.816Z,2.73
2023-05-15T16:42:23.551Z,3.37
2023-05-15T16:44:50.202Z,3.43
2023-05-15T16:47:16.875Z,13.63
2023-05-15T16:49:44.893Z,2.83
2023-05-15T16:52:12.406Z,4.93
2023-05-15T16:54:41.506Z,5.67
2023-05-15T16:57:08.154Z,2.90
2023-05-15T16:59:34.805Z,3.60
2023-05-15T17:02:01.628Z,2.97
2023-05-15T17:04:30.222Z,8.63
2023-05-15T17:06:58.130Z,2.87
2023-05-15T17:09:24.816Z,2.63
2023-05-15T17:11:51.524Z,3.40
2023-05-15T17:14:18.181Z,5.90
2023-05-15T17:16:45.812Z,3.70
2023-05-15T17:19:12.977Z,6.00
2023-05-15T17:21:39.889Z,10.10
2023-05-15T17:24:06.732Z,3.20
2023-05-15T17:26:33.370Z,7.90
2023-05-15T17:29:00.158Z,7.97
2023-05-15T17:31:29.034Z,3.47
2023-05-15T17:33:55.730Z,9.17
2023-05-15T17:36:22.439Z,6.10
2023-05-15T17:38:49.043Z,5.23
2023-05-15T17:41:15.686Z,6.97
2023-05-15T17:43:42.381Z,12.67
2023-05-15T17:46:09.090Z,7.20
2023-05-15T17:48:36.046Z,4.50
2023-05-15T17:51:02.728Z,3.93
2023-05-15T17:53:29.323Z,10.40
2023-05-15T17:55:56.083Z,6.83
2023-05-15T17:58:22.749Z,5.67
2023-05-15T18:00:51.106Z,5.80
2023-05-15T18:03:17.890Z,9.53
2023-05-15T18:05:47.793Z,10.13
2023-05-15T18:08:14.790Z,4.60
2023-05-15T18:10:41.587Z,3.47
2023-05-15T18:13:08.346Z,5.47
2023-05-15T18:15:35.287Z,4.87
2023-05-15T18:18:02.345Z,5.77
2023-05-15T18:20:29.229Z,2.97
2023-05-15T18:22:55.881Z,3.90
2023-05-15T18:25:22.557Z,5.27
2023-05-15T18:27:49.206Z,7.43
2023-05-15T18:30:15.979Z,7.17
2023-05-15T18:32:42.658Z,2.90
2023-05-15T18:35:09.828Z,6.63
2023-05-15T18:37:36.583Z,6.00
2023-05-15T18:40:03.306Z,4.37
2023-05-15T18:42:30.399Z,5.63
2023-05-15T18:44:57.418Z,8.07
2023-05-15T18:47:24.176Z,6.37
2023-05-15T18:49:51.237Z,4.93
2023-05-15T18:52:18.888Z,6.97
2023-05-15T18:54:45.649Z,6.80
2023-05-15T18:57:14.210Z,8.50
2023-05-15T18:59:41.725Z,4.33
2023-05-15T19:02:09.604Z,4.10
2023-05-15T19:04:36.503Z,2.77
2023-05-15T19:07:03.212Z,7.10
2023-05-15T19:09:29.874Z,4.67
2023-05-15T19:11:56.660Z,4.20
2023-05-15T19:14:23.322Z,4.77
2023-05-15T19:16:49.995Z,11.17
2023-05-15T19:19:17.418Z,6.40
2023-05-15T19:21:44.421Z,8.33
2023-05-15T19:24:11.448Z,4.37
2023-05-15T19:26:38.051Z,6.80
2023-05-15T19:29:04.783Z,3.07
2023-05-15T19:31:32.519Z,5.07
2023-05-15T19:34:00.299Z,4.13
2023-05-15T19:36:27.224Z,7.03
2023-05-15T19:38:53.966Z,3.97
2023-05-15T19:41:21.650Z,3.97
2023-05-15T19:43:50.505Z,4.93
2023-05-15T19:46:17.894Z,5.30
2023-05-15T19:48:44.639Z,5.90
2023-05-15T19:51:11.355Z,4.47
2023-05-15T19:53:37.983Z,6.53
2023-05-15T19:56:05.130Z,4.37
2023-05-15T19:58:32.494Z,4.47
2023-05-15T20:00:59.168Z,3.77
2023-05-15T20:03:32.476Z,4.83
2023-05-15T20:06:00.945Z,3.37
2023-05-15T20:08:27.992Z,6.30
2023-05-15T20:10:54.735Z,5.03
2023-05-15T20:13:22.085Z,4.27
2023-05-15T20:15:54.620Z,5.23
2023-05-15T20:18:21.863Z,6.23
2023-05-15T20:20:48.532Z,7.13
2023-05-15T20:23:15.315Z,7.43
2023-05-15T20:25:42.025Z,5.13
2023-05-15T20:28:08.642Z,7.23
2023-05-15T20:30:35.333Z,11.67
2023-05-15T20:33:02.109Z,6.40
2023-05-15T20:35:29.681Z,3.00
2023-05-15T20:37:57.439Z,5.97
2023-05-15T20:40:27.393Z,5.30
2023-05-15T20:42:54.199Z,9.00
2023-05-15T20:45:21.118Z,7.20
2023-05-15T20:47:48.467Z,6.47
2023-05-15T20:50:16.221Z,6.67
2023-05-15T20:52:42.878Z,6.27
2023-05-15T20:55:17.016Z,3.20
2023-05-15T20:57:44.450Z,8.37
2023-05-15T21:00:11.930Z,6.97
2023-05-15T21:02:38.768Z,8.30
2023-05-15T21:05:06.010Z,5.57
2023-05-15T21:07:32.763Z,4.97
2023-05-15T21:09:59.588Z,4.50
2023-05-15T21:12:26.189Z,7.93
2023-05-15T21:14:52.826Z,8.07
2023-05-15T21:17:19.560Z,3.40
2023-05-15T21:19:48.284Z,8.20
2023-05-15T21:22:15.993Z,3.57
2023-05-15T21:24:42.631Z,6.23
2023-05-15T21:27:09.488Z,5.67
2023-05-15T21:29:36.239Z,7.53
2023-05-15T21:32:03.332Z,8.30
2023-05-15T21:34:29.997Z,8.13
2023-05-15T21:36:56.671Z,6.17
2023-05-15T21:39:23.306Z,6.87
2023-05-15T21:41:50.934Z,3.73
2023-05-15T21:44:17.696Z,7.03
2023-05-15T21:46:44.346Z,3.60
2023-05-15T21:49:11.062Z,4.57
2023-05-15T21:51:37.692Z,5.67
2023-05-15T21:54:04.348Z,2.80
2023-05-15T21:56:31.098Z,5.70
2023-05-15T21:58:57.774Z,6.47
2023-05-15T22:01:24.411Z,5.23
2023-05-15T22:03:51.214Z,6.07
2023-05-15T22:06:18.057Z,5.60
2023-05-15T22:08:44.748Z,5.40
2023-05-15T22:11:11.547Z,4.97
2023-05-15T22:13:38.143Z,4.67
2023-05-15T22:16:05.896Z,7.37
2023-05-15T22:18:32.627Z,4.53
2023-05-15T22:20:59.264Z,5.10
2023-05-15T22:23:26.121Z,5.70
2023-05-15T22:25:52.762Z,4.33
2023-05-15T22:28:19.492Z,4.10
2023-05-15T22:30:46.315Z,4.90
2023-05-15T22:33:13.030Z,5.90
2023-05-15T22:35:39.631Z,6.50
2023-05-15T22:38:07.336Z,5.60
2023-05-15T22:40:33.978Z,3.20
2023-05-15T22:43:00.687Z,2.57
2023-05-15T22:45:27.457Z,5.83
2023-05-15T22:47:54.162Z,3.50
2023-05-15T22:50:20.775Z,4.00
2023-05-15T22:52:47.402Z,4.63
2023-05-15T22:55:14.308Z,4.37
2023-05-15T22:57:40.926Z,9.57
2023-05-15T23:00:08.100Z,4.23
2023-05-15T23:02:36.537Z,5.20
2023-05-15T23:05:03.220Z,6.57
2023-05-15T23:07:29.926Z,3.77
2023-05-15T23:09:56.798Z,3.97
2023-05-15T23:12:23.513Z,3.40
2023-05-15T23:14:50.439Z,5.67
2023-05-15T23:17:17.050Z,2.20
2023-05-15T23:19:43.725Z,3.60
2023-05-15T23:22:11.537Z,2.13
2023-05-15T23:24:38.163Z,3.83
2023-05-15T23:27:05.533Z,5.23
2023-05-15T23:29:33.801Z,3.70
2023-05-15T23:32:00.598Z,3.10
2023-05-15T23:34:28.328Z,3.40
2023-05-15T23:36:54.948Z,3.63
2023-05-15T23:39:21.640Z,3.73
2023-05-15T23:41:48.362Z,2.00
2023-05-15T23:44:15.095Z,5.20
2023-05-15T23:46:41.741Z,3.37
2023-05-15T23:49:08.395Z,5.00
2023-05-15T23:51:35.006Z,4.13
2023-05-15T23:54:01.619Z,2.40
2023-05-15T23:56:28.368Z,3.17
2023-05-15T23:58:55.250Z,4.33
